Terminal Aerodrome Forecast
Issued by NWS

Home | Current Version | Previous Version | Text Only | Print | Product List | Glossary On
Versions: 1 2 3 4 5 6 7 8 9 10 11 12
000
FTUS45 KPIH 301120
TAFSUN
TAF
KSUN 301120Z 3012/3112 32011KT P6SM SCT110
     FM301800 19010KT P6SM SCT100
      TEMPO 3020/3024 26010G20KT
     FM310300 31009KT P6SM SKC
      AMD LTD TO CLD VIS AND WIND TIL 301300=

USA.gov is the U.S. government's official web portal to all federal, state and local government web resources and services.